createdAt,value
2022-09-03T00:00:17.799Z,25.40
2022-09-03T00:02:52.858Z,25.30
2022-09-03T00:05:54.549Z,25.40
2022-09-03T00:08:43.804Z,25.40
2022-09-03T00:11:16.788Z,25.60
2022-09-03T00:14:08.275Z,25.80
2022-09-03T00:16:58.076Z,25.80
2022-09-03T00:19:31.221Z,26.00
2022-09-03T00:22:03.411Z,26.10
2022-09-03T00:24:36.593Z,25.80
2022-09-03T00:27:08.270Z,25.70
2022-09-03T00:30:04.687Z,25.50
2022-09-03T00:33:06.050Z,25.50
2022-09-03T00:35:38.549Z,25.50
2022-09-03T00:38:06.488Z,25.60
2022-09-03T00:41:01.009Z,25.60
2022-09-03T00:43:57.129Z,25.60
2022-09-03T00:46:45.376Z,25.60
2022-09-03T00:49:31.374Z,25.70
2022-09-03T00:52:14.854Z,25.70
2022-09-03T00:54:53.926Z,25.80
2022-09-03T00:57:47.917Z,25.60
2022-09-03T01:00:19.755Z,25.80
2022-09-03T01:03:08.760Z,25.80
2022-09-03T01:05:36.534Z,25.90
2022-09-03T01:08:09.302Z,25.60
2022-09-03T01:11:11.430Z,25.60
2022-09-03T01:14:18.328Z,25.90
2022-09-03T01:16:55.315Z,25.80
2022-09-03T01:19:40.823Z,25.70
2022-09-03T01:22:21.178Z,25.70
2022-09-03T01:25:17.797Z,26.00
2022-09-03T01:27:47.768Z,26.30
2022-09-03T01:30:19.838Z,26.40
2022-09-03T01:33:06.303Z,27.10
2022-09-03T01:35:51.469Z,27.10
2022-09-03T01:38:34.929Z,27.10
2022-09-03T01:41:34.932Z,27.00
2022-09-03T01:44:27.360Z,27.20
2022-09-03T01:47:11.870Z,27.10
2022-09-03T01:50:06.506Z,26.30
2022-09-03T01:52:36.462Z,26.00
2022-09-03T01:55:16.832Z,26.00
2022-09-03T01:57:56.554Z,25.90
2022-09-03T02:00:25.275Z,25.90
2022-09-03T02:02:53.338Z,26.00
2022-09-03T02:05:25.034Z,26.10
2022-09-03T02:08:02.860Z,25.60
2022-09-03T02:10:44.612Z,25.30
2022-09-03T02:13:18.459Z,25.00
2022-09-03T02:15:48.874Z,24.60
2022-09-03T02:18:31.104Z,24.50
2022-09-03T02:21:00.771Z,24.30
2022-09-03T02:23:28.764Z,24.30
2022-09-03T02:25:58.139Z,24.10
2022-09-03T02:28:27.608Z,23.90
2022-09-03T02:30:54.804Z,23.90
2022-09-03T02:33:22.117Z,23.90
2022-09-03T02:35:49.226Z,23.90
2022-09-03T02:38:19.528Z,23.90
2022-09-03T02:40:47.013Z,23.90
2022-09-03T02:43:25.957Z,23.90
2022-09-03T02:45:57.414Z,23.80
2022-09-03T02:48:25.082Z,23.80
2022-09-03T02:50:52.192Z,23.80
2022-09-03T02:53:19.299Z,23.90
2022-09-03T02:55:47.042Z,23.70
2022-09-03T02:58:14.105Z,23.60
2022-09-03T03:00:41.384Z,23.60
2022-09-03T03:03:08.393Z,23.50
2022-09-03T03:05:49.660Z,23.50
2022-09-03T03:08:17.901Z,23.50
2022-09-03T03:10:45.231Z,23.40
2022-09-03T03:13:12.646Z,23.40
2022-09-03T03:15:40.306Z,23.40
2022-09-03T03:18:08.231Z,23.50
2022-09-03T03:20:35.335Z,23.40
2022-09-03T03:23:04.401Z,23.50
2022-09-03T03:25:37.108Z,23.50
2022-09-03T03:28:05.445Z,23.50
2022-09-03T03:30:33.499Z,23.50
2022-09-03T03:33:01.541Z,23.50
2022-09-03T03:35:28.702Z,23.50
2022-09-03T03:38:01.130Z,23.50
2022-09-03T03:40:28.308Z,23.50
2022-09-03T03:42:57.486Z,23.60
2022-09-03T03:45:25.520Z,23.60
2022-09-03T03:47:52.861Z,23.60
2022-09-03T03:50:20.595Z,23.60
2022-09-03T03:52:48.866Z,23.60
2022-09-03T03:55:16.152Z,23.60
2022-09-03T03:57:43.403Z,23.60
2022-09-03T04:00:10.942Z,23.70
2022-09-03T04:02:39.256Z,23.70
2022-09-03T04:05:06.799Z,23.70
2022-09-03T04:07:35.191Z,23.70
2022-09-03T04:10:02.327Z,23.70
2022-09-03T04:12:29.594Z,23.70
2022-09-03T04:14:56.774Z,23.70
2022-09-03T04:17:25.436Z,23.70
2022-09-03T04:19:52.858Z,23.70
2022-09-03T04:22:20.858Z,23.70
2022-09-03T04:24:47.974Z,23.70
2022-09-03T04:27:14.933Z,23.70
2022-09-03T04:29:41.872Z,23.70
2022-09-03T04:32:27.488Z,23.70
2022-09-03T04:34:54.507Z,23.70
2022-09-03T04:37:21.466Z,23.70
2022-09-03T04:39:48.685Z,23.90
2022-09-03T04:42:15.778Z,23.80
2022-09-03T04:44:42.794Z,23.80
2022-09-03T04:47:10.045Z,23.80
2022-09-03T04:49:37.088Z,23.60
2022-09-03T04:52:04.262Z,23.50
2022-09-03T04:54:31.746Z,23.50
2022-09-03T04:56:58.758Z,23.50
2022-09-03T04:59:25.872Z,23.50
2022-09-03T05:01:52.975Z,23.40
2022-09-03T05:04:20.724Z,23.30
2022-09-03T05:06:47.930Z,23.30
2022-09-03T05:09:15.040Z,23.40
2022-09-03T05:11:42.081Z,23.90
2022-09-03T05:14:12.850Z,23.50
2022-09-03T05:16:40.123Z,23.80
2022-09-03T05:19:08.253Z,23.90
2022-09-03T05:21:36.562Z,23.80
2022-09-03T05:24:05.137Z,23.80
2022-09-03T05:26:36.230Z,23.80
2022-09-03T05:29:07.881Z,23.60
2022-09-03T05:31:39.326Z,24.40
2022-09-03T05:34:07.433Z,23.90
2022-09-03T05:36:37.002Z,23.70
2022-09-03T05:39:04.988Z,23.60
2022-09-03T05:41:33.874Z,23.60
2022-09-03T05:44:00.931Z,23.90
2022-09-03T05:46:33.573Z,23.90
2022-09-03T05:49:02.208Z,24.10
2022-09-03T05:51:30.437Z,24.30
2022-09-03T05:53:58.951Z,24.80
2022-09-03T05:56:28.600Z,24.80
2022-09-03T05:58:59.265Z,24.80
2022-09-03T06:01:29.197Z,24.80
2022-09-03T06:03:58.494Z,24.80
2022-09-03T06:06:27.240Z,25.20
2022-09-03T06:08:55.893Z,25.10
2022-09-03T06:11:28.326Z,25.00
2022-09-03T06:14:01.538Z,24.80
2022-09-03T06:16:33.385Z,24.80
2022-09-03T06:19:00.996Z,24.90
2022-09-03T06:21:28.444Z,24.70
2022-09-03T06:23:59.428Z,24.70
2022-09-03T06:26:29.344Z,24.90
2022-09-03T06:28:57.576Z,25.00
2022-09-03T06:31:25.695Z,25.00
2022-09-03T06:33:54.938Z,24.70
2022-09-03T06:36:24.255Z,24.50
2022-09-03T06:38:56.574Z,24.30
2022-09-03T06:41:30.952Z,23.90
2022-09-03T06:44:03.619Z,24.10
2022-09-03T06:46:32.786Z,23.90
2022-09-03T06:49:00.547Z,23.90
2022-09-03T06:51:29.614Z,23.60
2022-09-03T06:54:01.778Z,23.80
2022-09-03T06:56:29.302Z,23.60
2022-09-03T06:59:00.478Z,23.10
2022-09-03T07:01:31.429Z,23.20
2022-09-03T07:04:01.332Z,23.10
2022-09-03T07:06:33.613Z,22.70
2022-09-03T07:09:00.968Z,23.00
2022-09-03T07:11:30.984Z,23.00
2022-09-03T07:14:02.853Z,22.90
2022-09-03T07:16:37.667Z,22.80
2022-09-03T07:19:06.174Z,22.60
2022-09-03T07:21:36.989Z,22.50
2022-09-03T07:24:05.839Z,22.50
2022-09-03T07:26:39.009Z,21.50
2022-09-03T07:29:08.185Z,21.00
2022-09-03T07:31:38.151Z,20.70
2022-09-03T07:34:09.934Z,19.70
2022-09-03T07:36:43.313Z,19.70
2022-09-03T07:39:12.581Z,20.10
2022-09-03T07:41:42.839Z,19.90
2022-09-03T07:44:10.059Z,20.20
2022-09-03T07:46:41.363Z,20.30
2022-09-03T07:49:08.357Z,20.20
2022-09-03T07:51:39.307Z,19.90
2022-09-03T07:54:10.885Z,19.00
2022-09-03T07:56:40.204Z,19.40
2022-09-03T07:59:08.330Z,19.10
2022-09-03T08:01:36.087Z,19.50
2022-09-03T08:04:04.453Z,19.50
2022-09-03T08:06:33.104Z,19.60
2022-09-03T08:09:05.730Z,19.30
2022-09-03T08:11:36.994Z,19.50
2022-09-03T08:14:06.841Z,19.20
2022-09-03T08:16:51.873Z,19.00
2022-09-03T08:19:19.502Z,19.50
2022-09-03T08:21:46.736Z,18.40
2022-09-03T08:24:16.897Z,18.20
2022-09-03T08:26:51.108Z,18.00
2022-09-03T08:29:19.051Z,18.00
2022-09-03T08:31:46.056Z,17.80
2022-09-03T08:34:14.801Z,17.90
2022-09-03T08:36:42.046Z,17.70
2022-09-03T08:39:11.184Z,17.20
2022-09-03T08:41:44.565Z,17.30
2022-09-03T08:44:14.211Z,16.80
2022-09-03T08:46:54.165Z,17.00
2022-09-03T08:49:48.342Z,17.40
2022-09-03T08:52:29.549Z,17.80
2022-09-03T08:55:13.990Z,18.10
2022-09-03T08:58:14.254Z,17.90
2022-09-03T09:00:41.237Z,17.70
2022-09-03T09:03:17.323Z,17.90
2022-09-03T09:06:00.722Z,17.50
2022-09-03T09:08:27.674Z,17.40
2022-09-03T09:11:35.814Z,17.10
2022-09-03T09:14:25.717Z,16.90
2022-09-03T09:16:52.673Z,17.10
2022-09-03T09:19:52.382Z,17.30
2022-09-03T09:22:30.724Z,17.40
2022-09-03T09:25:01.732Z,17.20
2022-09-03T09:27:30.735Z,17.40
2022-09-03T09:30:02.064Z,17.40
2022-09-03T09:32:31.993Z,17.00
2022-09-03T09:34:58.952Z,16.90
2022-09-03T09:37:26.476Z,17.10
2022-09-03T09:40:01.103Z,17.20
2022-09-03T09:42:31.663Z,16.90
2022-09-03T09:45:10.327Z,16.70
2022-09-03T09:47:40.272Z,16.30
2022-09-03T09:50:26.271Z,16.40
2022-09-03T09:53:14.968Z,16.00
2022-09-03T09:55:55.447Z,16.00
2022-09-03T09:58:28.447Z,16.20
2022-09-03T10:01:13.643Z,15.80
2022-09-03T10:03:56.201Z,16.30
2022-09-03T10:06:48.198Z,16.30
2022-09-03T10:09:21.526Z,16.40
2022-09-03T10:12:15.860Z,16.80
2022-09-03T10:14:59.166Z,16.60
2022-09-03T10:17:36.644Z,16.60
2022-09-03T10:20:29.867Z,16.50
2022-09-03T10:23:15.906Z,16.40
2022-09-03T10:25:56.624Z,16.80
2022-09-03T10:28:27.639Z,16.90
2022-09-03T10:31:06.690Z,16.90
2022-09-03T10:33:48.579Z,16.90
2022-09-03T10:36:26.031Z,16.90
2022-09-03T10:39:10.306Z,16.10
2022-09-03T10:41:56.257Z,15.90
2022-09-03T10:44:35.401Z,16.00
2022-09-03T10:47:30.048Z,15.80
2022-09-03T10:50:06.246Z,15.70
2022-09-03T10:52:50.156Z,16.00
2022-09-03T10:55:29.565Z,16.10
2022-09-03T10:58:31.638Z,15.90
2022-09-03T11:01:09.761Z,15.20
2022-09-03T11:04:14.320Z,15.20
2022-09-03T11:07:01.508Z,15.10
2022-09-03T11:09:57.430Z,14.60
2022-09-03T11:12:28.714Z,14.60
2022-09-03T11:15:20.337Z,15.10
2022-09-03T11:17:51.590Z,15.30
2022-09-03T11:20:18.502Z,15.60
2022-09-03T11:22:48.477Z,15.70
2022-09-03T11:25:18.135Z,15.30
2022-09-03T11:28:19.466Z,15.10
2022-09-03T11:31:14.206Z,15.20
2022-09-03T11:34:08.324Z,15.50
2022-09-03T11:36:38.875Z,16.00
2022-09-03T11:39:24.467Z,16.50
2022-09-03T11:42:06.823Z,17.00
2022-09-03T11:44:51.444Z,16.80
2022-09-03T11:47:38.284Z,17.10
2022-09-03T11:50:17.007Z,17.10
2022-09-03T11:52:44.006Z,16.60
2022-09-03T11:55:10.950Z,17.00
2022-09-03T11:57:45.748Z,17.20
2022-09-03T12:00:21.722Z,17.40
2022-09-03T12:02:59.152Z,17.80
2022-09-03T12:05:38.082Z,18.00
2022-09-03T12:08:18.494Z,18.10
2022-09-03T12:10:56.030Z,18.20
2022-09-03T12:13:49.251Z,18.80
2022-09-03T12:16:37.083Z,18.90
2022-09-03T12:19:12.783Z,18.80
2022-09-03T12:21:41.119Z,19.00
2022-09-03T12:24:13.731Z,18.80
2022-09-03T12:26:42.704Z,19.50
2022-09-03T12:29:27.593Z,18.70
2022-09-03T12:31:56.592Z,18.40
2022-09-03T12:34:27.521Z,18.40
2022-09-03T12:36:55.126Z,18.10
2022-09-03T12:42:29.868Z,18.70
2022-09-03T12:45:10.960Z,18.80
2022-09-03T12:47:41.697Z,18.60
2022-09-03T12:50:20.100Z,18.70
2022-09-03T12:52:52.739Z,18.70
2022-09-03T12:55:31.512Z,18.60
2022-09-03T12:58:14.049Z,18.50
2022-09-03T13:00:52.267Z,18.70
2022-09-03T13:03:31.195Z,18.70
2022-09-03T13:06:02.932Z,18.80
2022-09-03T13:08:34.051Z,19.30
2022-09-03T13:11:05.405Z,19.00
2022-09-03T13:13:37.243Z,18.60
2022-09-03T13:16:11.729Z,18.10
2022-09-03T13:18:44.774Z,17.30
2022-09-03T13:21:28.178Z,17.10
2022-09-03T13:24:08.223Z,16.70
2022-09-03T13:26:53.948Z,16.50
2022-09-03T13:29:42.135Z,16.50
2022-09-03T13:32:41.402Z,16.50
2022-09-03T13:35:19.827Z,16.30
2022-09-03T13:37:56.126Z,16.20
2022-09-03T13:40:35.362Z,16.10
2022-09-03T13:43:21.538Z,16.30
2022-09-03T13:45:57.796Z,16.30
2022-09-03T13:48:51.609Z,16.50
2022-09-03T13:51:21.382Z,16.70
2022-09-03T13:54:07.406Z,17.00
2022-09-03T13:57:11.918Z,17.20
2022-09-03T13:59:49.939Z,17.50
2022-09-03T14:02:17.364Z,17.40
2022-09-03T14:05:28.848Z,17.30
2022-09-03T14:07:58.879Z,17.00
2022-09-03T14:10:31.837Z,16.90
2022-09-03T14:13:27.834Z,16.70
2022-09-03T14:16:12.985Z,17.00
2022-09-03T14:19:20.890Z,17.80
2022-09-03T14:21:58.337Z,18.50
2022-09-03T14:24:47.272Z,18.30
2022-09-03T14:27:22.285Z,18.10
2022-09-03T14:29:58.851Z,18.10
2022-09-03T14:32:46.958Z,18.20
2022-09-03T14:35:19.530Z,18.20
2022-09-03T14:38:01.393Z,17.50
2022-09-03T14:40:41.116Z,18.10
2022-09-03T14:43:17.032Z,18.10
2022-09-03T14:46:05.783Z,18.10
2022-09-03T14:48:35.863Z,17.70
2022-09-03T14:51:05.571Z,17.80
2022-09-03T14:54:11.226Z,17.70
2022-09-03T14:57:12.895Z,17.70
2022-09-03T15:00:18.531Z,17.60
2022-09-03T15:03:22.624Z,17.60
2022-09-03T15:06:14.816Z,17.40
2022-09-03T15:08:49.177Z,16.90
2022-09-03T15:11:30.501Z,17.00
2022-09-03T15:14:22.424Z,17.40
2022-09-03T15:17:00.137Z,18.10
2022-09-03T15:19:45.797Z,18.50
2022-09-03T15:22:18.783Z,18.60
2022-09-03T15:24:51.366Z,18.70
2022-09-03T15:27:37.033Z,19.10
2022-09-03T15:30:18.593Z,19.30
2022-09-03T15:33:27.989Z,19.10
2022-09-03T15:36:17.825Z,19.70
2022-09-03T15:38:55.783Z,20.30
2022-09-03T15:41:46.608Z,20.30
2022-09-03T15:44:19.414Z,20.20
2022-09-03T15:47:14.243Z,20.20
2022-09-03T15:49:55.056Z,19.90
2022-09-03T15:52:47.327Z,19.50
2022-09-03T15:55:37.460Z,19.90
2022-09-03T15:58:33.266Z,20.40
2022-09-03T16:01:27.132Z,20.90
2022-09-03T16:03:59.659Z,21.10
2022-09-03T16:06:52.902Z,21.10
2022-09-03T16:09:46.563Z,21.20
2022-09-03T16:12:32.283Z,21.30
2022-09-03T16:15:08.966Z,21.20
2022-09-03T16:17:52.842Z,21.50
2022-09-03T16:20:32.401Z,21.60
2022-09-03T16:23:08.196Z,21.10
2022-09-03T16:26:12.733Z,21.00
2022-09-03T16:29:03.180Z,21.50
2022-09-03T16:31:53.376Z,21.70
2022-09-03T16:34:41.884Z,21.70
2022-09-03T16:37:36.495Z,21.60
2022-09-03T16:40:43.520Z,21.50
2022-09-03T16:43:40.170Z,21.30
2022-09-03T16:46:23.222Z,21.30
2022-09-03T16:49:23.328Z,21.30
2022-09-03T16:51:56.320Z,21.20
2022-09-03T16:54:44.685Z,21.10
2022-09-03T16:57:29.097Z,21.20
2022-09-03T17:00:10.670Z,21.30
2022-09-03T17:02:46.698Z,21.10
2022-09-03T17:05:26.824Z,21.30
2022-09-03T17:08:31.294Z,21.50
2022-09-03T17:11:07.653Z,21.80
2022-09-03T17:13:41.297Z,21.60
2022-09-03T17:16:45.879Z,21.50
2022-09-03T17:19:19.055Z,21.50
2022-09-03T17:22:07.482Z,21.40
2022-09-03T17:24:52.011Z,21.60
2022-09-03T17:27:40.227Z,21.80
2022-09-03T17:30:20.975Z,21.60
2022-09-03T17:33:01.721Z,21.80
2022-09-03T17:35:44.262Z,22.00
2022-09-03T17:38:38.589Z,22.10
2022-09-03T17:41:19.200Z,22.00
2022-09-03T17:43:51.065Z,22.00
2022-09-03T17:46:50.743Z,22.00
2022-09-03T17:49:34.653Z,22.30
2022-09-03T17:52:14.251Z,22.10
2022-09-03T17:54:44.838Z,22.20
2022-09-03T17:57:30.920Z,22.20
2022-09-03T18:00:09.207Z,22.30
2022-09-03T18:02:44.218Z,22.20
2022-09-03T18:05:30.097Z,22.40
2022-09-03T18:08:13.341Z,22.50
2022-09-03T18:10:43.029Z,22.50
2022-09-03T18:13:41.037Z,22.50
2022-09-03T18:16:26.372Z,22.60
2022-09-03T18:18:59.960Z,22.40
2022-09-03T18:21:52.729Z,22.30
2022-09-03T18:24:50.866Z,22.90
2022-09-03T18:27:44.861Z,22.40
2022-09-03T18:30:32.492Z,22.10
2022-09-03T18:33:17.995Z,22.30
2022-09-03T18:36:05.272Z,22.60
2022-09-03T18:38:53.130Z,22.40
2022-09-03T18:42:00.625Z,22.40
2022-09-03T18:44:46.252Z,22.50
2022-09-03T18:48:05.952Z,22.50
2022-09-03T18:51:27.524Z,22.60
2022-09-03T18:55:03.943Z,22.50
2022-09-03T18:57:53.843Z,22.50
2022-09-03T19:00:39.297Z,22.50
2022-09-03T19:03:55.950Z,22.60
2022-09-03T19:07:06.084Z,22.60
2022-09-03T19:09:51.735Z,23.00
2022-09-03T19:13:05.326Z,23.20
2022-09-03T19:16:21.394Z,23.30
2022-09-03T19:19:43.913Z,23.50
2022-09-03T19:22:31.270Z,23.20
2022-09-03T19:25:29.269Z,23.20
2022-09-03T19:28:33.234Z,23.20
2022-09-03T19:31:49.777Z,23.10
2022-09-03T19:34:54.318Z,23.00
2022-09-03T19:38:17.920Z,23.10
2022-09-03T19:41:27.005Z,23.30
2022-09-03T19:44:39.804Z,23.40
2022-09-03T19:47:27.773Z,23.70
2022-09-03T19:50:16.382Z,24.00
2022-09-03T19:53:30.441Z,24.00
2022-09-03T19:56:23.993Z,24.00
2022-09-03T19:59:15.006Z,24.10
2022-09-03T20:02:02.077Z,23.90
2022-09-03T20:05:20.571Z,24.00
2022-09-03T20:08:10.156Z,24.20
2022-09-03T20:10:38.078Z,24.20
2022-09-03T20:13:20.810Z,24.30
2022-09-03T20:15:56.575Z,24.10
2022-09-03T20:18:53.677Z,23.60
2022-09-03T20:21:37.645Z,23.80
2022-09-03T20:24:13.368Z,23.60
2022-09-03T20:27:09.607Z,23.60
2022-09-03T20:29:41.422Z,23.60
2022-09-03T20:32:43.628Z,23.70
2022-09-03T20:35:45.063Z,23.80
2022-09-03T20:38:31.048Z,23.80
2022-09-03T20:41:19.384Z,23.80
2022-09-03T20:43:47.721Z,23.60
2022-09-03T20:46:48.322Z,23.30
2022-09-03T20:49:21.340Z,23.30
2022-09-03T20:52:06.386Z,23.40
2022-09-03T20:55:18.746Z,23.20
2022-09-03T20:58:23.174Z,23.10
2022-09-03T21:01:02.964Z,23.00
2022-09-03T21:03:54.244Z,23.00
2022-09-03T21:06:23.940Z,22.90
2022-09-03T21:09:33.785Z,22.80
2022-09-03T21:12:07.012Z,22.70
2022-09-03T21:15:08.244Z,22.80
2022-09-03T21:18:02.892Z,22.80
2022-09-03T21:20:54.548Z,22.80
2022-09-03T21:23:28.366Z,22.40
2022-09-03T21:26:15.096Z,22.50
2022-09-03T21:28:45.815Z,22.50
2022-09-03T21:31:28.942Z,22.40
2022-09-03T21:34:08.194Z,22.40
2022-09-03T21:36:37.348Z,22.40
2022-09-03T21:39:15.505Z,22.40
2022-09-03T21:41:55.894Z,22.40
2022-09-03T21:44:53.782Z,22.30
2022-09-03T21:47:23.774Z,22.30
2022-09-03T21:50:07.493Z,22.50
2022-09-03T21:53:01.529Z,22.30
2022-09-03T21:55:40.498Z,22.30
2022-09-03T21:58:26.761Z,22.20
2022-09-03T22:01:03.564Z,22.30
2022-09-03T22:03:31.448Z,22.20
2022-09-03T22:06:06.372Z,22.30
2022-09-03T22:08:36.082Z,22.10
2022-09-03T22:12:01.141Z,22.20
2022-09-03T22:14:36.593Z,22.00
2022-09-03T22:17:28.893Z,22.10
2022-09-03T22:19:56.554Z,22.10
2022-09-03T22:22:34.487Z,22.00
2022-09-03T22:25:40.662Z,21.90
2022-09-03T22:28:28.723Z,22.20
2022-09-03T22:31:17.618Z,22.30
2022-09-03T22:34:01.686Z,22.20
2022-09-03T22:36:59.957Z,22.10
2022-09-03T22:39:41.121Z,22.00
2022-09-03T22:42:16.985Z,22.60
2022-09-03T22:44:43.968Z,21.90
2022-09-03T22:47:33.777Z,21.90
2022-09-03T22:50:13.676Z,22.10
2022-09-03T22:52:50.333Z,22.30
2022-09-03T22:55:23.438Z,22.20
2022-09-03T22:58:04.887Z,22.20
2022-09-03T23:00:40.874Z,22.10
2022-09-03T23:03:17.074Z,22.30
2022-09-03T23:06:01.057Z,22.40
2022-09-03T23:08:47.790Z,22.30
2022-09-03T23:11:30.025Z,22.30
2022-09-03T23:14:14.636Z,22.30
2022-09-03T23:17:06.209Z,22.30
2022-09-03T23:19:43.907Z,22.30
2022-09-03T23:22:18.070Z,22.30
2022-09-03T23:25:06.440Z,22.30
2022-09-03T23:28:08.898Z,22.20
2022-09-03T23:30:36.583Z,22.70
2022-09-03T23:33:03.862Z,22.10
2022-09-03T23:35:47.926Z,22.30
2022-09-03T23:39:02.263Z,22.30
2022-09-03T23:42:02.109Z,22.40
2022-09-03T23:44:37.099Z,22.50
2022-09-03T23:47:14.115Z,22.30
2022-09-03T23:49:46.813Z,22.30
2022-09-03T23:52:45.704Z,22.30
2022-09-03T23:55:47.412Z,22.30
2022-09-03T23:58:43.349Z,22.20
